sensor_id;sensor_type;location;lat;lon;timestamp;pressure;altitude;pressure_sealevel;temperature;humidity
4346;BME280;2186;49.866;7.986;2023-02-19T00:01:38;100669.19;;;11.79;97.15
4346;BME280;2186;49.866;7.986;2023-02-19T00:04:16;100673.56;;;11.82;96.40
4346;BME280;2186;49.866;7.986;2023-02-19T00:06:45;100670.72;;;11.88;96.64
4346;BME280;2186;49.866;7.986;2023-02-19T00:09:13;100660.81;;;11.93;96.18
4346;BME280;2186;49.866;7.986;2023-02-19T00:11:42;100663.84;;;11.78;96.34
4346;BME280;2186;49.866;7.986;2023-02-19T00:14:10;100637.88;;;11.88;95.87
4346;BME280;2186;49.866;7.986;2023-02-19T00:16:39;100634.19;;;11.93;96.16
4346;BME280;2186;49.866;7.986;2023-02-19T00:19:11;100645.34;;;11.73;96.37
4346;BME280;2186;49.866;7.986;2023-02-19T00:21:38;100649.63;;;11.80;96.47
4346;BME280;2186;49.866;7.986;2023-02-19T00:24:06;100647.91;;;11.76;96.77
4346;BME280;2186;49.866;7.986;2023-02-19T00:26:33;100657.47;;;11.85;96.00
4346;BME280;2186;49.866;7.986;2023-02-19T00:29:00;100657.88;;;11.70;97.07
4346;BME280;2186;49.866;7.986;2023-02-19T00:31:29;100655.59;;;11.89;96.39
4346;BME280;2186;49.866;7.986;2023-02-19T00:34:01;100661.50;;;12.00;95.90
4346;BME280;2186;49.866;7.986;2023-02-19T00:36:28;100660.97;;;11.87;96.21
4346;BME280;2186;49.866;7.986;2023-02-19T00:38:56;100670.81;;;11.85;96.03
4346;BME280;2186;49.866;7.986;2023-02-19T00:41:23;100669.94;;;11.84;97.05
4346;BME280;2186;49.866;7.986;2023-02-19T00:43:57;100675.03;;;11.92;96.59
4346;BME280;2186;49.866;7.986;2023-02-19T00:46:28;100676.13;;;11.85;96.89
4346;BME280;2186;49.866;7.986;2023-02-19T00:48:56;100648.66;;;11.83;96.50
4346;BME280;2186;49.866;7.986;2023-02-19T00:51:25;100617.97;;;12.01;96.57
4346;BME280;2186;49.866;7.986;2023-02-19T00:53:52;100637.81;;;11.89;96.11
4346;BME280;2186;49.866;7.986;2023-02-19T00:56:19;100646.34;;;12.02;95.42
4346;BME280;2186;49.866;7.986;2023-02-19T00:58:46;100636.94;;;11.89;96.16
4346;BME280;2186;49.866;7.986;2023-02-19T01:01:13;100637.19;;;11.81;96.20
4346;BME280;2186;49.866;7.986;2023-02-19T01:03:40;100657.09;;;11.66;96.94
4346;BME280;2186;49.866;7.986;2023-02-19T01:06:08;100653.25;;;11.76;96.83
4346;BME280;2186;49.866;7.986;2023-02-19T01:08:35;100652.16;;;11.85;97.20
4346;BME280;2186;49.866;7.986;2023-02-19T01:11:03;100653.19;;;11.78;97.27
4346;BME280;2186;49.866;7.986;2023-02-19T01:13:30;100648.13;;;11.69;98.11
4346;BME280;2186;49.866;7.986;2023-02-19T01:16:05;100644.44;;;11.74;98.04
4346;BME280;2186;49.866;7.986;2023-02-19T01:18:33;100634.53;;;11.81;98.00
4346;BME280;2186;49.866;7.986;2023-02-19T01:21:04;100640.69;;;11.83;97.95
4346;BME280;2186;49.866;7.986;2023-02-19T01:23:32;100641.03;;;11.69;98.41
4346;BME280;2186;49.866;7.986;2023-02-19T01:25:59;100637.59;;;11.64;99.59
4346;BME280;2186;49.866;7.986;2023-02-19T01:28:25;100644.66;;;11.67;99.84
4346;BME280;2186;49.866;7.986;2023-02-19T01:30:51;100637.53;;;11.67;100.00
4346;BME280;2186;49.866;7.986;2023-02-19T01:33:18;100630.06;;;11.81;99.14
4346;BME280;2186;49.866;7.986;2023-02-19T01:35:44;100632.69;;;11.83;99.10
4346;BME280;2186;49.866;7.986;2023-02-19T01:38:11;100642.03;;;11.64;99.88
4346;BME280;2186;49.866;7.986;2023-02-19T01:40:37;100631.16;;;11.73;99.54
4346;BME280;2186;49.866;7.986;2023-02-19T01:43:07;100640.25;;;11.64;99.72
4346;BME280;2186;49.866;7.986;2023-02-19T01:45:38;100636.78;;;11.62;100.00
4346;BME280;2186;49.866;7.986;2023-02-19T01:48:13;100622.09;;;11.47;100.00
4346;BME280;2186;49.866;7.986;2023-02-19T01:50:46;100623.16;;;11.73;99.52
4346;BME280;2186;49.866;7.986;2023-02-19T01:53:18;100611.88;;;11.63;99.18
4346;BME280;2186;49.866;7.986;2023-02-19T01:55:48;100609.13;;;11.68;99.72
4346;BME280;2186;49.866;7.986;2023-02-19T01:58:17;100606.50;;;11.65;99.04
4346;BME280;2186;49.866;7.986;2023-02-19T02:00:43;100615.69;;;11.54;99.97
4346;BME280;2186;49.866;7.986;2023-02-19T02:03:10;100603.91;;;11.63;98.62
4346;BME280;2186;49.866;7.986;2023-02-19T02:05:49;100596.78;;;11.65;98.88
4346;BME280;2186;49.866;7.986;2023-02-19T02:08:20;100593.56;;;11.52;99.50
4346;BME280;2186;49.866;7.986;2023-02-19T02:11:05;100589.59;;;11.67;99.09
4346;BME280;2186;49.866;7.986;2023-02-19T02:13:32;100587.34;;;11.53;99.06
4346;BME280;2186;49.866;7.986;2023-02-19T02:16:25;100583.22;;;11.73;98.82
4346;BME280;2186;49.866;7.986;2023-02-19T02:19:03;100582.56;;;11.65;98.25
4346;BME280;2186;49.866;7.986;2023-02-19T02:32:56;100566.56;;;11.66;98.67
4346;BME280;2186;49.866;7.986;2023-02-19T02:35:29;100569.19;;;11.68;97.94
4346;BME280;2186;49.866;7.986;2023-02-19T02:38:05;100575.09;;;11.79;97.36
4346;BME280;2186;49.866;7.986;2023-02-19T02:40:33;100565.69;;;11.64;97.24
4346;BME280;2186;49.866;7.986;2023-02-19T02:43:00;100558.22;;;11.80;96.70
4346;BME280;2186;49.866;7.986;2023-02-19T02:45:30;100569.81;;;11.76;96.30
4346;BME280;2186;49.866;7.986;2023-02-19T02:48:16;100572.63;;;11.71;97.19
4346;BME280;2186;49.866;7.986;2023-02-19T02:51:15;100569.03;;;11.72;96.67
4346;BME280;2186;49.866;7.986;2023-02-19T02:53:50;100566.47;;;11.69;97.05
4346;BME280;2186;49.866;7.986;2023-02-19T02:56:38;100556.22;;;11.86;96.03
4346;BME280;2186;49.866;7.986;2023-02-19T02:59:09;100553.81;;;11.79;95.55
4346;BME280;2186;49.866;7.986;2023-02-19T03:01:42;100559.19;;;11.74;96.02
4346;BME280;2186;49.866;7.986;2023-02-19T03:04:30;100571.06;;;11.63;96.83
4346;BME280;2186;49.866;7.986;2023-02-19T03:06:59;100578.03;;;11.68;97.23
4346;BME280;2186;49.866;7.986;2023-02-19T03:09:35;100572.91;;;11.61;98.13
4346;BME280;2186;49.866;7.986;2023-02-19T03:12:09;100566.47;;;11.69;98.72
4346;BME280;2186;49.866;7.986;2023-02-19T03:15:00;100578.53;;;11.82;98.34
4346;BME280;2186;49.866;7.986;2023-02-19T03:17:50;100575.13;;;11.76;98.95
4346;BME280;2186;49.866;7.986;2023-02-19T03:20:40;100575.47;;;11.65;98.70
4346;BME280;2186;49.866;7.986;2023-02-19T03:23:10;100569.56;;;11.54;99.85
4346;BME280;2186;49.866;7.986;2023-02-19T03:25:38;100569.06;;;11.40;99.86
4346;BME280;2186;49.866;7.986;2023-02-19T03:28:27;100567.28;;;11.40;98.71
4346;BME280;2186;49.866;7.986;2023-02-19T03:31:17;100568.25;;;11.69;97.43
4346;BME280;2186;49.866;7.986;2023-02-19T03:33:46;100567.72;;;11.56;98.09
4346;BME280;2186;49.866;7.986;2023-02-19T03:36:16;100564.25;;;11.54;98.25
4346;BME280;2186;49.866;7.986;2023-02-19T03:38:53;100568.50;;;11.60;97.42
4346;BME280;2186;49.866;7.986;2023-02-19T03:41:29;100574.56;;;11.65;96.34
4346;BME280;2186;49.866;7.986;2023-02-19T03:46:51;100571.59;;;11.75;96.15
4346;BME280;2186;49.866;7.986;2023-02-19T03:49:27;100588.88;;;11.61;97.22
4346;BME280;2186;49.866;7.986;2023-02-19T03:52:12;100581.25;;;11.81;95.84
4346;BME280;2186;49.866;7.986;2023-02-19T03:54:58;100590.16;;;11.80;96.04
4346;BME280;2186;49.866;7.986;2023-02-19T04:00:16;100587.41;;;11.83;96.47
4346;BME280;2186;49.866;7.986;2023-02-19T04:02:48;100593.25;;;11.63;96.93
4346;BME280;2186;49.866;7.986;2023-02-19T04:05:28;100588.25;;;11.51;98.00
4346;BME280;2186;49.866;7.986;2023-02-19T04:07:58;100580.81;;;11.64;97.89
4346;BME280;2186;49.866;7.986;2023-02-19T04:10:26;100573.09;;;11.54;97.54
4346;BME280;2186;49.866;7.986;2023-02-19T04:13:04;100567.88;;;11.51;98.66
4346;BME280;2186;49.866;7.986;2023-02-19T04:15:33;100570.63;;;11.47;98.32
4346;BME280;2186;49.866;7.986;2023-02-19T04:18:05;100562.78;;;11.42;97.90
4346;BME280;2186;49.866;7.986;2023-02-19T04:20:38;100568.34;;;11.33;99.60
4346;BME280;2186;49.866;7.986;2023-02-19T04:23:06;100571.47;;;11.49;98.31
4346;BME280;2186;49.866;7.986;2023-02-19T04:25:34;100581.47;;;11.41;98.20
4346;BME280;2186;49.866;7.986;2023-02-19T04:28:01;100591.16;;;11.43;98.58
4346;BME280;2186;49.866;7.986;2023-02-19T04:30:28;100586.88;;;11.38;98.79
4346;BME280;2186;49.866;7.986;2023-02-19T04:32:55;100587.44;;;11.49;97.30
4346;BME280;2186;49.866;7.986;2023-02-19T04:35:21;100588.34;;;11.48;97.25
4346;BME280;2186;49.866;7.986;2023-02-19T04:37:48;100585.81;;;11.43;97.43
4346;BME280;2186;49.866;7.986;2023-02-19T04:40:14;100591.78;;;11.53;97.27
4346;BME280;2186;49.866;7.986;2023-02-19T04:42:40;100598.47;;;11.35;97.64
4346;BME280;2186;49.866;7.986;2023-02-19T04:45:07;100593.22;;;11.32;98.20
4346;BME280;2186;49.866;7.986;2023-02-19T04:47:33;100607.53;;;11.28;97.88
4346;BME280;2186;49.866;7.986;2023-02-19T04:50:00;100603.97;;;11.29;98.36
4346;BME280;2186;49.866;7.986;2023-02-19T04:52:26;100605.84;;;11.25;98.24
4346;BME280;2186;49.866;7.986;2023-02-19T04:54:53;100604.41;;;11.45;97.51
4346;BME280;2186;49.866;7.986;2023-02-19T04:57:19;100608.53;;;11.24;97.80
4346;BME280;2186;49.866;7.986;2023-02-19T04:59:46;100609.41;;;11.23;97.71
4346;BME280;2186;49.866;7.986;2023-02-19T05:02:12;100610.75;;;11.41;97.52
4346;BME280;2186;49.866;7.986;2023-02-19T05:04:39;100610.84;;;11.38;97.28
4346;BME280;2186;49.866;7.986;2023-02-19T05:07:06;100616.31;;;11.32;97.35
4346;BME280;2186;49.866;7.986;2023-02-19T05:09:32;100621.31;;;11.44;97.86
4346;BME280;2186;49.866;7.986;2023-02-19T05:11:59;100616.72;;;11.49;96.22
4346;BME280;2186;49.866;7.986;2023-02-19T05:14:25;100620.47;;;11.42;96.15
4346;BME280;2186;49.866;7.986;2023-02-19T05:16:51;100609.19;;;11.32;96.29
4346;BME280;2186;49.866;7.986;2023-02-19T05:19:18;100605.53;;;11.36;96.61
4346;BME280;2186;49.866;7.986;2023-02-19T05:21:44;100613.50;;;11.38;96.84
4346;BME280;2186;49.866;7.986;2023-02-19T05:24:11;100625.72;;;11.45;97.08
4346;BME280;2186;49.866;7.986;2023-02-19T05:26:37;100617.44;;;11.21;99.09
4346;BME280;2186;49.866;7.986;2023-02-19T05:29:04;100620.38;;;11.12;100.00
4346;BME280;2186;49.866;7.986;2023-02-19T05:31:30;100630.78;;;11.20;100.00
4346;BME280;2186;49.866;7.986;2023-02-19T05:33:59;100640.09;;;11.04;100.00
4346;BME280;2186;49.866;7.986;2023-02-19T05:36:25;100626.66;;;11.08;100.00
4346;BME280;2186;49.866;7.986;2023-02-19T05:38:53;100642.00;;;10.98;100.00
4346;BME280;2186;49.866;7.986;2023-02-19T05:41:25;100638.69;;;11.23;100.00
4346;BME280;2186;49.866;7.986;2023-02-19T05:43:52;100640.66;;;11.16;100.00
4346;BME280;2186;49.866;7.986;2023-02-19T05:46:21;100638.16;;;11.09;100.00
4346;BME280;2186;49.866;7.986;2023-02-19T05:48:49;100641.53;;;11.17;100.00
4346;BME280;2186;49.866;7.986;2023-02-19T05:51:19;100640.75;;;11.13;100.00
4346;BME280;2186;49.866;7.986;2023-02-19T05:53:47;100643.28;;;11.18;100.00
4346;BME280;2186;49.866;7.986;2023-02-19T05:59:09;100656.00;;;11.05;100.00
4346;BME280;2186;49.866;7.986;2023-02-19T06:01:39;100660.06;;;11.20;100.00
4346;BME280;2186;49.866;7.986;2023-02-19T06:04:06;100670.75;;;11.18;100.00
4346;BME280;2186;49.866;7.986;2023-02-19T06:06:32;100673.19;;;11.27;99.95
4346;BME280;2186;49.866;7.986;2023-02-19T06:08:59;100676.03;;;11.20;98.90
4346;BME280;2186;49.866;7.986;2023-02-19T06:11:25;100677.09;;;11.13;99.36
4346;BME280;2186;49.866;7.986;2023-02-19T06:13:52;100685.66;;;11.25;98.57
4346;BME280;2186;49.866;7.986;2023-02-19T06:16:18;100682.13;;;11.25;98.71
4346;BME280;2186;49.866;7.986;2023-02-19T06:18:45;100691.91;;;11.24;97.73
4346;BME280;2186;49.866;7.986;2023-02-19T06:21:11;100698.41;;;11.13;98.06
4346;BME280;2186;49.866;7.986;2023-02-19T06:23:38;100704.91;;;11.35;98.52
4346;BME280;2186;49.866;7.986;2023-02-19T06:26:10;100711.31;;;11.28;98.24
4346;BME280;2186;49.866;7.986;2023-02-19T06:28:38;100711.44;;;11.22;98.91
4346;BME280;2186;49.866;7.986;2023-02-19T06:31:05;100710.56;;;11.21;99.69
4346;BME280;2186;49.866;7.986;2023-02-19T06:33:32;100714.56;;;11.41;98.73
4346;BME280;2186;49.866;7.986;2023-02-19T06:36:01;100713.72;;;11.37;98.47
4346;BME280;2186;49.866;7.986;2023-02-19T06:38:29;100711.16;;;11.34;98.11
4346;BME280;2186;49.866;7.986;2023-02-19T06:41:02;100712.91;;;11.35;97.49
4346;BME280;2186;49.866;7.986;2023-02-19T06:43:30;100720.13;;;11.30;97.23
4346;BME280;2186;49.866;7.986;2023-02-19T06:45:57;100714.31;;;11.14;97.15
4346;BME280;2186;49.866;7.986;2023-02-19T06:48:26;100701.50;;;11.30;97.36
4346;BME280;2186;49.866;7.986;2023-02-19T06:50:53;100699.81;;;11.27;97.07
4346;BME280;2186;49.866;7.986;2023-02-19T06:53:19;100715.38;;;11.43;96.04
4346;BME280;2186;49.866;7.986;2023-02-19T06:56:00;100721.00;;;11.31;96.16
4346;BME280;2186;49.866;7.986;2023-02-19T06:58:28;100730.81;;;11.28;96.59
4346;BME280;2186;49.866;7.986;2023-02-19T07:00:55;100727.16;;;11.33;96.08
4346;BME280;2186;49.866;7.986;2023-02-19T07:03:21;100736.59;;;11.46;95.08
4346;BME280;2186;49.866;7.986;2023-02-19T07:05:48;100759.69;;;11.45;95.20
4346;BME280;2186;49.866;7.986;2023-02-19T07:08:15;100755.22;;;11.46;95.08
4346;BME280;2186;49.866;7.986;2023-02-19T07:10:44;100770.59;;;11.35;94.86
4346;BME280;2186;49.866;7.986;2023-02-19T07:13:10;100772.84;;;11.51;94.28
4346;BME280;2186;49.866;7.986;2023-02-19T07:15:37;100762.44;;;11.42;94.73
4346;BME280;2186;49.866;7.986;2023-02-19T07:18:04;100772.88;;;11.50;94.48
4346;BME280;2186;49.866;7.986;2023-02-19T07:20:32;100777.19;;;11.55;94.39
4346;BME280;2186;49.866;7.986;2023-02-19T07:22:59;100781.56;;;11.58;94.42
4346;BME280;2186;49.866;7.986;2023-02-19T07:25:25;100779.59;;;11.65;94.00
4346;BME280;2186;49.866;7.986;2023-02-19T07:27:52;100786.78;;;11.61;94.54
4346;BME280;2186;49.866;7.986;2023-02-19T07:30:18;100780.69;;;11.57;96.48
4346;BME280;2186;49.866;7.986;2023-02-19T07:32:45;100776.47;;;11.47;97.75
4346;BME280;2186;49.866;7.986;2023-02-19T07:35:11;100757.75;;;11.52;98.51
4346;BME280;2186;49.866;7.986;2023-02-19T07:37:39;100756.34;;;11.36;99.34
4346;BME280;2186;49.866;7.986;2023-02-19T07:40:06;100761.59;;;11.40;99.79
4346;BME280;2186;49.866;7.986;2023-02-19T07:42:33;100779.41;;;11.38;99.57
4346;BME280;2186;49.866;7.986;2023-02-19T07:44:59;100789.13;;;11.39;99.59
4346;BME280;2186;49.866;7.986;2023-02-19T07:47:28;100803.56;;;11.65;99.00
4346;BME280;2186;49.866;7.986;2023-02-19T07:49:54;100813.34;;;11.66;97.75
4346;BME280;2186;49.866;7.986;2023-02-19T07:52:21;100814.69;;;11.83;97.57
4346;BME280;2186;49.866;7.986;2023-02-19T07:54:47;100821.16;;;11.72;96.96
4346;BME280;2186;49.866;7.986;2023-02-19T07:57:14;100823.63;;;11.81;97.14
4346;BME280;2186;49.866;7.986;2023-02-19T07:59:40;100829.53;;;11.94;95.85
4346;BME280;2186;49.866;7.986;2023-02-19T08:02:17;100823.38;;;11.90;95.97
4346;BME280;2186;49.866;7.986;2023-02-19T08:05:05;100825.00;;;11.97;95.26
4346;BME280;2186;49.866;7.986;2023-02-19T08:07:35;100823.41;;;11.89;94.85
4346;BME280;2186;49.866;7.986;2023-02-19T08:10:03;100822.31;;;11.97;94.58
4346;BME280;2186;49.866;7.986;2023-02-19T08:12:55;100831.28;;;11.95;94.58
4346;BME280;2186;49.866;7.986;2023-02-19T08:15:40;100829.63;;;11.89;94.19
4346;BME280;2186;49.866;7.986;2023-02-19T08:18:08;100829.72;;;11.86;94.44
4346;BME280;2186;49.866;7.986;2023-02-19T08:20:34;100832.50;;;11.81;94.41
4346;BME280;2186;49.866;7.986;2023-02-19T08:23:01;100842.84;;;11.94;94.31
4346;BME280;2186;49.866;7.986;2023-02-19T08:25:28;100841.09;;;11.93;94.04
4346;BME280;2186;49.866;7.986;2023-02-19T08:27:54;100850.28;;;11.78;96.58
4346;BME280;2186;49.866;7.986;2023-02-19T08:30:21;100855.28;;;11.93;97.25
4346;BME280;2186;49.866;7.986;2023-02-19T08:32:48;100865.63;;;11.68;97.95
4346;BME280;2186;49.866;7.986;2023-02-19T08:35:14;100845.38;;;11.61;99.00
4346;BME280;2186;49.866;7.986;2023-02-19T08:37:41;100849.28;;;11.85;98.41
4346;BME280;2186;49.866;7.986;2023-02-19T08:40:07;100847.59;;;11.81;98.64
4346;BME280;2186;49.866;7.986;2023-02-19T08:42:34;100836.22;;;11.73;98.27
4346;BME280;2186;49.866;7.986;2023-02-19T08:45:00;100853.00;;;11.76;98.29
4346;BME280;2186;49.866;7.986;2023-02-19T08:47:27;100853.13;;;11.72;98.90
4346;BME280;2186;49.866;7.986;2023-02-19T08:49:53;100865.50;;;11.73;98.02
4346;BME280;2186;49.866;7.986;2023-02-19T08:52:19;100863.72;;;11.73;98.00
4346;BME280;2186;49.866;7.986;2023-02-19T08:54:46;100880.50;;;11.77;97.25
4346;BME280;2186;49.866;7.986;2023-02-19T08:57:12;100879.63;;;12.13;96.62
4346;BME280;2186;49.866;7.986;2023-02-19T08:59:39;100894.75;;;12.13;96.54
4346;BME280;2186;49.866;7.986;2023-02-19T09:02:05;100889.63;;;12.04;95.99
4346;BME280;2186;49.866;7.986;2023-02-19T09:04:31;100892.78;;;12.20;95.43
4346;BME280;2186;49.866;7.986;2023-02-19T09:06:58;100891.78;;;12.25;94.71
4346;BME280;2186;49.866;7.986;2023-02-19T09:09:25;100899.16;;;12.14;93.13
4346;BME280;2186;49.866;7.986;2023-02-19T09:11:51;100901.34;;;12.32;92.83
4346;BME280;2186;49.866;7.986;2023-02-19T09:14:17;100903.88;;;12.38;92.11
4346;BME280;2186;49.866;7.986;2023-02-19T09:16:44;100902.91;;;12.41;92.63
4346;BME280;2186;49.866;7.986;2023-02-19T09:19:10;100902.81;;;12.44;92.54
4346;BME280;2186;49.866;7.986;2023-02-19T09:21:37;100904.75;;;12.39;92.50
4346;BME280;2186;49.866;7.986;2023-02-19T09:24:03;100920.88;;;12.34;91.77
4346;BME280;2186;49.866;7.986;2023-02-19T09:26:30;100941.06;;;12.43;91.22
4346;BME280;2186;49.866;7.986;2023-02-19T09:28:56;100942.81;;;12.44;91.82
4346;BME280;2186;49.866;7.986;2023-02-19T09:31:22;100948.63;;;12.60;90.98
4346;BME280;2186;49.866;7.986;2023-02-19T09:33:49;100955.53;;;12.68;90.86
4346;BME280;2186;49.866;7.986;2023-02-19T09:36:16;100948.03;;;12.83;90.23
4346;BME280;2186;49.866;7.986;2023-02-19T09:38:44;100950.53;;;12.89;90.67
4346;BME280;2186;49.866;7.986;2023-02-19T09:41:22;100942.28;;;12.65;90.18
4346;BME280;2186;49.866;7.986;2023-02-19T09:43:51;100938.22;;;12.83;89.38
4346;BME280;2186;49.866;7.986;2023-02-19T09:46:30;100947.06;;;12.85;89.24
4346;BME280;2186;49.866;7.986;2023-02-19T09:51:40;100956.19;;;12.77;88.22
4346;BME280;2186;49.866;7.986;2023-02-19T09:54:16;100958.53;;;12.89;87.63
4346;BME280;2186;49.866;7.986;2023-02-19T09:56:45;100959.53;;;12.85;87.75
4346;BME280;2186;49.866;7.986;2023-02-19T09:59:20;100960.19;;;12.93;87.21
4346;BME280;2186;49.866;7.986;2023-02-19T10:01:54;100959.88;;;12.71;86.87
4346;BME280;2186;49.866;7.986;2023-02-19T10:04:22;100959.31;;;12.92;87.36
4346;BME280;2186;49.866;7.986;2023-02-19T10:06:50;100953.66;;;13.04;86.21
4346;BME280;2186;49.866;7.986;2023-02-19T10:09:21;100960.38;;;13.19;86.32
4346;BME280;2186;49.866;7.986;2023-02-19T10:11:50;100960.34;;;13.21;85.15
4346;BME280;2186;49.866;7.986;2023-02-19T10:14:24;100963.97;;;13.18;85.01
4346;BME280;2186;49.866;7.986;2023-02-19T10:16:56;100958.59;;;13.20;85.30
4346;BME280;2186;49.866;7.986;2023-02-19T10:19:24;100966.88;;;13.40;84.85
4346;BME280;2186;49.866;7.986;2023-02-19T10:21:51;100968.56;;;13.44;85.79
4346;BME280;2186;49.866;7.986;2023-02-19T10:24:24;100975.31;;;13.56;84.83
4346;BME280;2186;49.866;7.986;2023-02-19T10:26:52;100966.25;;;13.61;84.31
4346;BME280;2186;49.866;7.986;2023-02-19T10:29:19;100967.34;;;13.54;83.39
4346;BME280;2186;49.866;7.986;2023-02-19T10:31:47;100972.78;;;13.51;81.66
4346;BME280;2186;49.866;7.986;2023-02-19T10:34:20;100971.59;;;13.61;82.32
4346;BME280;2186;49.866;7.986;2023-02-19T10:36:48;100984.69;;;13.71;80.92
4346;BME280;2186;49.866;7.986;2023-02-19T10:39:36;100979.16;;;13.47;79.77
4346;BME280;2186;49.866;7.986;2023-02-19T10:42:04;100992.66;;;13.41;79.31
4346;BME280;2186;49.866;7.986;2023-02-19T10:44:40;100987.59;;;13.63;80.15
4346;BME280;2186;49.866;7.986;2023-02-19T10:47:15;101002.00;;;13.57;79.52
4346;BME280;2186;49.866;7.986;2023-02-19T10:49:42;101005.97;;;13.43;79.06
4346;BME280;2186;49.866;7.986;2023-02-19T10:52:28;101018.28;;;13.48;80.31
4346;BME280;2186;49.866;7.986;2023-02-19T10:55:25;101016.09;;;13.62;80.63
4346;BME280;2186;49.866;7.986;2023-02-19T10:57:54;101023.13;;;13.65;79.86
4346;BME280;2186;49.866;7.986;2023-02-19T11:00:28;101032.53;;;13.16;80.98
4346;BME280;2186;49.866;7.986;2023-02-19T11:03:19;101035.34;;;13.10;81.25
4346;BME280;2186;49.866;7.986;2023-02-19T11:06:00;101042.47;;;13.10;81.79
4346;BME280;2186;49.866;7.986;2023-02-19T11:08:28;101046.84;;;13.12;81.70
4346;BME280;2186;49.866;7.986;2023-02-19T11:10:55;101035.66;;;13.32;82.02
4346;BME280;2186;49.866;7.986;2023-02-19T11:13:30;101028.63;;;13.29;82.66
4346;BME280;2186;49.866;7.986;2023-02-19T11:15:58;101029.50;;;13.30;81.78
4346;BME280;2186;49.866;7.986;2023-02-19T11:18:28;101024.56;;;13.13;82.52
4346;BME280;2186;49.866;7.986;2023-02-19T11:21:01;101007.44;;;13.23;81.53
4346;BME280;2186;49.866;7.986;2023-02-19T11:23:43;100989.25;;;13.36;81.97
4346;BME280;2186;49.866;7.986;2023-02-19T11:26:20;100987.00;;;13.52;81.47
4346;BME280;2186;49.866;7.986;2023-02-19T11:29:18;101008.50;;;13.78;79.58
4346;BME280;2186;49.866;7.986;2023-02-19T11:31:47;101012.81;;;14.12;79.59
4346;BME280;2186;49.866;7.986;2023-02-19T11:37:06;101004.44;;;14.50;77.11
4346;BME280;2186;49.866;7.986;2023-02-19T11:39:33;101015.19;;;14.21;76.12
4346;BME280;2186;49.866;7.986;2023-02-19T11:45:17;101004.25;;;14.29;75.93
4346;BME280;2186;49.866;7.986;2023-02-19T11:56:10;101012.97;;;14.62;75.30
4346;BME280;2186;49.866;7.986;2023-02-19T12:02:25;101033.91;;;14.49;73.63
4346;BME280;2186;49.866;7.986;2023-02-19T12:05:11;101040.66;;;14.33;74.12
4346;BME280;2186;49.866;7.986;2023-02-19T12:15:56;101048.00;;;13.98;76.09
4346;BME280;2186;49.866;7.986;2023-02-19T12:35:30;101019.84;;;14.14;74.57
4346;BME280;2186;49.866;7.986;2023-02-19T12:39:06;101027.22;;;14.06;74.72
4346;BME280;2186;49.866;7.986;2023-02-19T12:41:31;101038.03;;;14.03;75.14
4346;BME280;2186;49.866;7.986;2023-02-19T12:44:07;101030.16;;;13.99;74.42
4346;BME280;2186;49.866;7.986;2023-02-19T12:46:39;101024.50;;;14.08;74.05
4346;BME280;2186;49.866;7.986;2023-02-19T12:51:47;101031.00;;;14.29;74.27
4346;BME280;2186;49.866;7.986;2023-02-19T12:54:20;101028.94;;;14.37;74.29
4346;BME280;2186;49.866;7.986;2023-02-19T12:57:09;101025.97;;;14.18;73.87
4346;BME280;2186;49.866;7.986;2023-02-19T12:59:46;101019.06;;;14.11;75.03
4346;BME280;2186;49.866;7.986;2023-02-19T13:05:02;101013.38;;;13.93;74.55
4346;BME280;2186;49.866;7.986;2023-02-19T13:07:48;101015.78;;;13.73;75.66
4346;BME280;2186;49.866;7.986;2023-02-19T13:10:30;101016.66;;;13.74;75.72
4346;BME280;2186;49.866;7.986;2023-02-19T13:13:05;101013.31;;;13.95;76.38
4346;BME280;2186;49.866;7.986;2023-02-19T13:15:39;101017.94;;;14.18;75.36
4346;BME280;2186;49.866;7.986;2023-02-19T13:18:15;101002.63;;;14.23;75.19
4346;BME280;2186;49.866;7.986;2023-02-19T13:20:45;101009.19;;;14.41;75.73
4346;BME280;2186;49.866;7.986;2023-02-19T13:23:24;101009.28;;;14.38;76.12
4346;BME280;2186;49.866;7.986;2023-02-19T13:32:06;101012.31;;;14.27;75.71
4346;BME280;2186;49.866;7.986;2023-02-19T13:37:21;101005.47;;;14.18;75.22
4346;BME280;2186;49.866;7.986;2023-02-19T13:39:53;101004.72;;;14.41;75.26
4346;BME280;2186;49.866;7.986;2023-02-19T13:42:33;100990.88;;;14.57;74.59
4346;BME280;2186;49.866;7.986;2023-02-19T13:45:02;101000.59;;;14.59;73.79
4346;BME280;2186;49.866;7.986;2023-02-19T13:47:49;100999.25;;;14.46;74.29
4346;BME280;2186;49.866;7.986;2023-02-19T13:50:26;101006.22;;;14.76;73.38
4346;BME280;2186;49.866;7.986;2023-02-19T13:52:58;101018.34;;;14.62;73.85
4346;BME280;2186;49.866;7.986;2023-02-19T13:58:37;101021.94;;;14.61;73.13
4346;BME280;2186;49.866;7.986;2023-02-19T14:01:08;101027.75;;;14.73;73.19
4346;BME280;2186;49.866;7.986;2023-02-19T14:03:46;101031.13;;;14.52;74.55
4346;BME280;2186;49.866;7.986;2023-02-19T14:06:13;101036.41;;;14.55;73.76
4346;BME280;2186;49.866;7.986;2023-02-19T14:08:53;101033.03;;;14.48;74.18
4346;BME280;2186;49.866;7.986;2023-02-19T14:14:35;101029.84;;;14.36;73.92
4346;BME280;2186;49.866;7.986;2023-02-19T14:30:33;101054.25;;;14.25;74.42
4346;BME280;2186;49.866;7.986;2023-02-19T14:33:02;101053.75;;;14.14;73.67
4346;BME280;2186;49.866;7.986;2023-02-19T14:35:40;101040.00;;;14.26;73.85
4346;BME280;2186;49.866;7.986;2023-02-19T14:38:15;101036.47;;;14.24;74.81
4346;BME280;2186;49.866;7.986;2023-02-19T14:40:45;101041.34;;;14.39;74.23
4346;BME280;2186;49.866;7.986;2023-02-19T14:43:17;101045.59;;;14.46;74.14
4346;BME280;2186;49.866;7.986;2023-02-19T14:45:54;101041.31;;;14.41;74.67
4346;BME280;2186;49.866;7.986;2023-02-19T14:48:30;101051.81;;;14.47;74.04
4346;BME280;2186;49.866;7.986;2023-02-19T14:51:06;101059.81;;;14.19;73.90
4346;BME280;2186;49.866;7.986;2023-02-19T14:53:38;101056.38;;;14.15;74.62
4346;BME280;2186;49.866;7.986;2023-02-19T14:56:18;101063.41;;;14.18;71.92
4346;BME280;2186;49.866;7.986;2023-02-19T14:58:45;101062.47;;;14.19;73.88
4346;BME280;2186;49.866;7.986;2023-02-19T15:01:27;101058.84;;;14.21;74.17
4346;BME280;2186;49.866;7.986;2023-02-19T15:03:53;101076.06;;;14.13;73.22
4346;BME280;2186;49.866;7.986;2023-02-19T15:06:22;101080.03;;;14.00;73.95
4346;BME280;2186;49.866;7.986;2023-02-19T15:08:52;101072.25;;;13.90;74.56
4346;BME280;2186;49.866;7.986;2023-02-19T15:11:23;101077.75;;;13.86;74.71